createdAt,value
2023-02-11T00:00:27.881Z,39.77
2023-02-11T00:03:29.679Z,38.10
2023-02-11T00:06:33.176Z,38.37
2023-02-11T00:09:34.902Z,39.30
2023-02-11T00:12:37.444Z,39.30
2023-02-11T00:15:39.173Z,38.80
2023-02-11T00:18:40.919Z,35.97
2023-02-11T00:21:42.713Z,35.47
2023-02-11T00:24:45.110Z,35.80
2023-02-11T00:27:46.818Z,35.30
2023-02-11T00:30:55.448Z,37.13
2023-02-11T00:33:57.276Z,35.27
2023-02-11T00:36:59.300Z,34.90
2023-02-11T00:40:01.026Z,34.57
2023-02-11T00:43:02.799Z,33.63
2023-02-11T00:46:04.788Z,35.47
2023-02-11T00:49:06.613Z,35.90
2023-02-11T00:52:08.340Z,32.83
2023-02-11T00:55:10.133Z,35.23
2023-02-11T00:58:11.883Z,35.47
2023-02-11T01:01:14.116Z,36.47
2023-02-11T01:04:15.886Z,34.77
2023-02-11T01:07:17.627Z,32.33
2023-02-11T01:10:19.483Z,33.97
2023-02-11T01:13:21.572Z,34.73
2023-02-11T01:16:23.457Z,32.27
2023-02-11T01:19:25.263Z,35.83
2023-02-11T01:22:27.012Z,37.17
2023-02-11T01:25:28.816Z,35.50
2023-02-11T01:28:31.175Z,36.27
2023-02-11T01:31:33.079Z,36.90
2023-02-11T01:34:34.956Z,36.00
2023-02-11T01:37:37.069Z,36.63
2023-02-11T01:40:38.815Z,35.93
2023-02-11T01:43:47.370Z,35.67
2023-02-11T01:46:49.312Z,37.53
2023-02-11T01:49:56.832Z,37.67
2023-02-11T01:53:18.634Z,38.10
2023-02-11T01:56:39.466Z,36.47
2023-02-11T01:59:56.721Z,36.33
2023-02-11T02:07:05.371Z,35.07
2023-02-11T02:10:16.621Z,34.20
2023-02-11T02:13:18.403Z,35.87
2023-02-11T02:16:22.239Z,36.47
2023-02-11T02:19:39.431Z,38.07
2023-02-11T02:23:00.981Z,35.67
2023-02-11T02:26:19.928Z,36.23
2023-02-11T02:29:36.715Z,38.47
2023-02-11T02:33:23.119Z,37.03
2023-02-11T02:36:37.052Z,32.70
2023-02-11T02:39:39.189Z,35.90
2023-02-11T02:42:42.001Z,35.80
2023-02-11T02:45:43.725Z,37.07
2023-02-11T02:48:46.659Z,35.60
2023-02-11T02:52:08.271Z,37.33
2023-02-11T02:55:26.357Z,36.87
2023-02-11T02:59:20.845Z,34.83
2023-02-11T03:02:34.159Z,34.90
2023-02-11T03:05:53.507Z,35.37
2023-02-11T03:09:10.355Z,37.77
2023-02-11T03:12:14.583Z,38.03
2023-02-11T03:15:18.311Z,38.17
2023-02-11T03:18:26.167Z,35.63
2023-02-11T03:21:31.094Z,37.63
2023-02-11T03:24:38.046Z,37.57
2023-02-11T03:27:52.848Z,38.03
2023-02-11T03:31:23.133Z,41.13
2023-02-11T03:34:47.607Z,33.63
2023-02-11T03:37:55.491Z,34.83
2023-02-11T03:40:59.759Z,37.93
2023-02-11T03:44:02.737Z,35.03
2023-02-11T03:47:07.970Z,38.20
2023-02-11T03:50:13.833Z,38.70
2023-02-11T03:53:17.420Z,35.50
2023-02-11T03:56:23.265Z,36.43
2023-02-11T03:59:25.718Z,37.80
2023-02-11T04:02:31.550Z,36.43
2023-02-11T04:05:33.606Z,38.27
2023-02-11T04:08:35.618Z,38.73
2023-02-11T04:11:37.561Z,39.73
2023-02-11T04:14:39.374Z,38.87
2023-02-11T04:17:41.104Z,38.70
2023-02-11T04:20:43.034Z,38.03
2023-02-11T04:23:44.804Z,39.23
2023-02-11T04:26:46.624Z,37.77
2023-02-11T04:29:48.574Z,37.20
2023-02-11T04:32:50.623Z,37.80
2023-02-11T04:35:52.635Z,37.00
2023-02-11T04:38:54.499Z,37.50
2023-02-11T04:41:56.296Z,37.60
2023-02-11T04:44:58.044Z,38.07
2023-02-11T04:48:01.269Z,37.17
2023-02-11T04:51:03.212Z,37.40
2023-02-11T04:54:05.095Z,36.87
2023-02-11T04:57:06.819Z,39.90
2023-02-11T05:00:10.047Z,36.83
2023-02-11T05:03:12.321Z,36.57
2023-02-11T05:06:14.258Z,36.80
2023-02-11T05:09:16.747Z,36.90
2023-02-11T05:12:18.525Z,38.97
2023-02-11T05:15:20.367Z,37.47
2023-02-11T05:18:22.142Z,39.40
2023-02-11T05:21:24.073Z,37.20
2023-02-11T05:24:25.897Z,37.23
2023-02-11T05:27:27.669Z,37.20
2023-02-11T05:30:29.831Z,37.33
2023-02-11T05:33:31.730Z,38.53
2023-02-11T05:36:33.626Z,36.90
2023-02-11T05:39:35.323Z,35.73
2023-02-11T05:42:37.084Z,37.27
2023-02-11T05:45:38.794Z,39.43
2023-02-11T05:48:40.528Z,38.40
2023-02-11T05:51:42.263Z,35.93
2023-02-11T05:54:44.017Z,35.87
2023-02-11T05:57:45.730Z,37.20
2023-02-11T06:00:47.420Z,36.60
2023-02-11T06:03:51.553Z,44.20
2023-02-11T06:06:53.368Z,35.33
2023-02-11T06:09:55.032Z,39.03
2023-02-11T06:12:56.820Z,38.23
2023-02-11T06:15:59.848Z,35.57
2023-02-11T06:19:01.690Z,33.37
2023-02-11T06:22:03.900Z,34.70
2023-02-11T06:25:06.346Z,36.47
2023-02-11T06:28:08.615Z,39.67
2023-02-11T06:31:11.983Z,38.03
2023-02-11T06:34:13.936Z,35.90
2023-02-11T06:37:15.747Z,37.97
2023-02-11T06:40:17.523Z,37.53
2023-02-11T06:43:19.202Z,38.27
2023-02-11T06:46:24.239Z,36.20
2023-02-11T06:49:26.082Z,41.10
2023-02-11T06:52:27.771Z,47.07
2023-02-11T06:55:29.424Z,39.67
2023-02-11T06:58:31.261Z,40.17
2023-02-11T07:01:32.999Z,40.03
2023-02-11T07:04:34.787Z,41.23
2023-02-11T07:07:37.323Z,38.60
2023-02-11T07:10:39.689Z,41.37
2023-02-11T07:13:41.650Z,41.40
2023-02-11T07:16:45.521Z,39.23
2023-02-11T07:19:47.295Z,42.13
2023-02-11T07:22:49.124Z,41.30
2023-02-11T07:25:51.051Z,39.37
2023-02-11T07:28:53.489Z,36.17
2023-02-11T07:31:55.332Z,39.03
2023-02-11T07:34:57.720Z,38.73
2023-02-11T07:38:00.698Z,37.43
2023-02-11T07:41:05.273Z,37.10
2023-02-11T07:44:10.120Z,34.93
2023-02-11T07:47:11.831Z,37.20
2023-02-11T07:50:13.627Z,37.33
2023-02-11T07:53:15.486Z,37.33
2023-02-11T07:56:19.361Z,37.90
2023-02-11T07:59:21.256Z,34.80
2023-02-11T08:02:23.060Z,37.10
2023-02-11T08:05:24.902Z,37.00
2023-02-11T08:08:27.730Z,37.83
2023-02-11T08:11:29.700Z,35.00
2023-02-11T08:14:32.754Z,37.27
2023-02-11T08:17:36.062Z,36.90
2023-02-11T08:20:37.773Z,35.77
2023-02-11T08:23:41.144Z,35.83
2023-02-11T08:26:43.523Z,37.07
2023-02-11T08:29:45.264Z,37.37
2023-02-11T08:32:47.442Z,35.63
2023-02-11T08:35:49.151Z,35.40
2023-02-11T08:38:51.422Z,35.90
2023-02-11T08:41:56.472Z,35.20
2023-02-11T08:44:58.206Z,34.60
2023-02-11T08:48:00.543Z,34.50
2023-02-11T08:51:09.940Z,36.50
2023-02-11T08:54:12.706Z,33.93
2023-02-11T08:57:14.437Z,34.67
2023-02-11T09:00:16.871Z,33.47
2023-02-11T09:03:18.738Z,31.97
2023-02-11T09:06:22.352Z,33.20
2023-02-11T09:09:24.375Z,36.80
2023-02-11T09:12:26.263Z,35.80
2023-02-11T09:15:28.182Z,35.53
2023-02-11T09:18:30.297Z,32.90
2023-02-11T09:21:32.358Z,30.57
2023-02-11T09:24:34.253Z,32.23
2023-02-11T09:27:36.064Z,32.53
2023-02-11T09:30:38.651Z,32.33
2023-02-11T09:33:47.651Z,33.70
2023-02-11T09:36:49.399Z,28.40
2023-02-11T09:39:51.424Z,29.90
2023-02-11T09:43:11.737Z,30.17
2023-02-11T09:46:16.152Z,30.67
2023-02-11T09:49:23.192Z,31.10
2023-02-11T09:52:49.095Z,39.20
2023-02-11T09:55:56.682Z,40.83
2023-02-11T09:58:58.421Z,52.73
2023-02-11T10:02:17.128Z,40.80
2023-02-11T10:05:53.855Z,38.70
2023-02-11T10:09:21.897Z,34.50
2023-02-11T10:12:38.348Z,35.50
2023-02-11T10:15:51.979Z,35.37
2023-02-11T10:19:11.365Z,33.90
2023-02-11T10:22:45.212Z,33.60
2023-02-11T10:25:50.727Z,34.03
2023-02-11T10:28:55.913Z,31.97
2023-02-11T10:31:58.861Z,31.07
2023-02-11T10:35:04.289Z,32.33
2023-02-11T10:38:06.009Z,33.20
2023-02-11T10:41:16.165Z,33.00
2023-02-11T10:44:40.126Z,32.67
2023-02-11T10:47:42.737Z,33.07
2023-02-11T10:50:44.895Z,30.33
2023-02-11T10:53:49.394Z,34.23
2023-02-11T10:56:59.502Z,33.60
2023-02-11T11:00:07.718Z,33.60
2023-02-11T11:03:37.854Z,32.67
2023-02-11T11:06:39.712Z,34.93
2023-02-11T11:09:49.497Z,35.27
2023-02-11T11:12:51.327Z,37.53
2023-02-11T11:16:12.029Z,37.40
2023-02-11T11:19:22.693Z,37.13
2023-02-11T11:22:24.493Z,36.93
2023-02-11T11:25:29.559Z,34.97
2023-02-11T11:28:38.766Z,35.30
2023-02-11T11:31:57.886Z,34.60
2023-02-11T11:35:03.549Z,34.87
2023-02-11T11:38:05.766Z,36.10
2023-02-11T11:41:24.514Z,35.33
2023-02-11T11:44:26.258Z,34.30
2023-02-11T11:47:42.960Z,33.43
2023-02-11T11:50:48.144Z,32.53
2023-02-11T11:54:13.119Z,39.97
2023-02-11T11:57:22.033Z,34.57
2023-02-11T12:00:37.723Z,34.83
2023-02-11T12:04:02.442Z,34.70
2023-02-11T12:07:25.947Z,35.40
2023-02-11T12:11:06.293Z,33.47
2023-02-11T12:14:22.869Z,37.17
2023-02-11T12:17:52.314Z,37.00
2023-02-11T12:20:54.048Z,36.50
2023-02-11T12:24:09.693Z,37.97
2023-02-11T12:27:42.331Z,36.53
2023-02-11T12:31:06.443Z,36.37
2023-02-11T12:34:26.210Z,38.10
2023-02-11T12:37:38.438Z,38.53
2023-02-11T12:41:10.380Z,38.50
2023-02-11T12:44:29.905Z,38.33
2023-02-11T12:48:07.430Z,36.00
2023-02-11T12:51:11.939Z,37.80
2023-02-11T12:54:27.295Z,36.10
2023-02-11T12:57:33.341Z,36.53
2023-02-11T13:00:49.718Z,35.43
2023-02-11T13:04:06.421Z,34.23
2023-02-11T13:07:19.184Z,36.07
2023-02-11T13:10:25.083Z,34.40
2023-02-11T13:13:34.455Z,36.90
2023-02-11T13:16:43.840Z,30.67
2023-02-11T13:19:52.979Z,38.27
2023-02-11T13:23:28.126Z,35.43
2023-02-11T13:26:57.798Z,39.17
2023-02-11T13:30:24.710Z,40.47
2023-02-11T13:33:39.565Z,34.83
2023-02-11T13:36:41.416Z,36.17
2023-02-11T13:39:43.150Z,35.97
2023-02-11T13:42:51.446Z,36.63
2023-02-11T13:46:06.937Z,36.67
2023-02-11T13:49:25.987Z,35.27
2023-02-11T13:52:32.120Z,35.57
2023-02-11T13:55:34.948Z,35.67
2023-02-11T13:58:46.689Z,34.17
2023-02-11T14:02:17.546Z,36.10
2023-02-11T14:05:42.931Z,35.87
2023-02-11T14:09:09.162Z,39.30
2023-02-11T14:12:31.575Z,35.87
2023-02-11T14:15:45.200Z,34.47
2023-02-11T14:18:50.030Z,34.00
2023-02-11T14:21:51.777Z,34.00
2023-02-11T14:24:56.961Z,35.07
2023-02-11T14:28:19.040Z,35.60
2023-02-11T14:31:37.252Z,33.03
2023-02-11T14:35:26.899Z,35.13
2023-02-11T14:39:06.168Z,36.27
2023-02-11T14:42:20.790Z,34.63
2023-02-11T14:45:28.799Z,34.50
2023-02-11T14:48:35.145Z,32.77
2023-02-11T14:51:40.523Z,38.60
2023-02-11T14:54:44.047Z,34.37
2023-02-11T14:57:45.895Z,32.70
2023-02-11T15:01:06.441Z,34.90
2023-02-11T15:04:27.768Z,35.87
2023-02-11T15:07:29.556Z,41.67
2023-02-11T15:10:44.773Z,39.90
2023-02-11T15:13:49.685Z,38.27
2023-02-11T15:16:53.734Z,37.00
2023-02-11T15:19:59.162Z,38.27
2023-02-11T15:23:05.700Z,37.63
2023-02-11T15:26:15.252Z,36.13
2023-02-11T15:29:17.859Z,35.93
2023-02-11T15:32:25.641Z,35.73
2023-02-11T15:35:37.806Z,36.10
2023-02-11T15:38:40.964Z,34.90
2023-02-11T15:41:44.386Z,32.73
2023-02-11T15:44:50.579Z,34.93
2023-02-11T15:48:18.692Z,36.53
2023-02-11T15:51:31.620Z,35.13
2023-02-11T15:54:33.497Z,36.13
2023-02-11T15:57:35.362Z,35.40
2023-02-11T16:00:46.169Z,37.50
2023-02-11T16:03:51.363Z,48.23
2023-02-11T16:06:54.673Z,42.13
2023-02-11T16:09:58.557Z,35.33
2023-02-11T16:13:03.151Z,38.60
2023-02-11T16:16:17.187Z,37.77
2023-02-11T16:19:22.976Z,42.10
2023-02-11T16:22:29.970Z,39.13
2023-02-11T16:25:34.395Z,41.10
2023-02-11T16:28:37.553Z,35.70
2023-02-11T16:31:45.372Z,39.17
2023-02-11T16:34:47.597Z,40.90
2023-02-11T16:37:49.341Z,37.53
2023-02-11T16:40:51.555Z,43.00
2023-02-11T16:43:57.833Z,41.67
2023-02-11T16:47:01.411Z,41.23
2023-02-11T16:50:04.572Z,41.13
2023-02-11T16:53:06.471Z,39.20
2023-02-11T16:56:14.148Z,42.63
2023-02-11T16:59:16.080Z,40.13
2023-02-11T17:02:25.799Z,39.10
2023-02-11T17:05:27.589Z,37.70
2023-02-11T17:08:29.976Z,36.37
2023-02-11T17:11:31.744Z,33.63
2023-02-11T17:14:33.436Z,37.30
2023-02-11T17:17:35.256Z,33.33
2023-02-11T17:20:36.997Z,34.90
2023-02-11T17:23:39.096Z,41.20
2023-02-11T17:26:41.688Z,44.70
2023-02-11T17:29:43.684Z,39.80
2023-02-11T17:32:47.257Z,40.10
2023-02-11T17:35:49.174Z,44.00
2023-02-11T17:38:51.756Z,39.57
2023-02-11T17:41:53.486Z,40.33
2023-02-11T17:44:55.221Z,38.13
2023-02-11T17:47:56.932Z,36.97
2023-02-11T17:50:59.033Z,37.53
2023-02-11T17:54:03.297Z,36.27
2023-02-11T17:57:05.071Z,38.33
2023-02-11T18:00:08.282Z,38.40
2023-02-11T18:03:09.989Z,38.07
2023-02-11T18:06:12.308Z,44.50
2023-02-11T18:09:14.205Z,46.73
2023-02-11T18:12:17.895Z,42.40
2023-02-11T18:15:19.813Z,45.57
2023-02-11T18:18:21.560Z,45.87
2023-02-11T18:21:24.145Z,53.03
2023-02-11T18:24:27.225Z,52.03
2023-02-11T18:27:29.143Z,42.70
2023-02-11T18:30:31.298Z,39.33
2023-02-11T18:33:33.511Z,38.53
2023-02-11T18:36:35.652Z,40.30
2023-02-11T18:39:37.430Z,41.60
2023-02-11T18:42:39.495Z,56.93
2023-02-11T18:45:45.271Z,46.87
2023-02-11T18:48:47.010Z,49.90
2023-02-11T18:51:48.797Z,48.17
2023-02-11T18:54:52.255Z,46.30
2023-02-11T18:57:54.265Z,45.90
2023-02-11T19:00:56.025Z,38.33
2023-02-11T19:03:59.951Z,47.87
2023-02-11T19:07:03.685Z,49.33
2023-02-11T19:10:06.191Z,49.00
2023-02-11T19:13:08.302Z,47.07
2023-02-11T19:16:11.570Z,56.60
2023-02-11T19:19:14.253Z,54.60
2023-02-11T19:22:17.098Z,50.43
2023-02-11T19:25:19.377Z,43.40
2023-02-11T19:28:21.232Z,46.47
2023-02-11T19:31:23.080Z,46.33
2023-02-11T19:34:25.092Z,43.63
2023-02-11T19:37:27.016Z,52.13
2023-02-11T19:40:28.782Z,53.77
2023-02-11T19:43:30.532Z,58.47
2023-02-11T19:46:35.675Z,61.27
2023-02-11T19:49:37.472Z,60.93
2023-02-11T19:52:40.769Z,64.07
2023-02-11T19:55:42.663Z,56.33
2023-02-11T19:58:44.450Z,52.77
2023-02-11T20:01:48.928Z,51.73
2023-02-11T20:04:50.696Z,47.20
2023-02-11T20:07:52.435Z,47.43
2023-02-11T20:10:54.299Z,51.23
2023-02-11T20:13:57.086Z,49.90
2023-02-11T20:16:58.871Z,47.33
2023-02-11T20:20:00.633Z,45.43
2023-02-11T20:23:02.383Z,40.33
2023-02-11T20:26:32.180Z,45.70
2023-02-11T20:29:34.325Z,47.93
2023-02-11T20:32:38.429Z,49.43
2023-02-11T20:35:40.134Z,55.97
2023-02-11T20:38:42.143Z,50.17
2023-02-11T20:41:45.894Z,53.33
2023-02-11T20:44:48.057Z,53.97
2023-02-11T20:47:49.902Z,52.33
2023-02-11T20:50:51.649Z,51.40
2023-02-11T20:53:54.351Z,51.10
2023-02-11T20:56:58.195Z,47.17
2023-02-11T21:00:00.204Z,50.17
2023-02-11T21:03:02.116Z,50.23
2023-02-11T21:06:04.053Z,52.70
2023-02-11T21:09:07.642Z,54.40
2023-02-11T21:12:09.451Z,51.03
2023-02-11T21:15:12.953Z,50.67
2023-02-11T21:18:14.719Z,47.93
2023-02-11T21:21:17.851Z,45.70
2023-02-11T21:24:19.545Z,44.97
2023-02-11T21:27:21.297Z,48.77
2023-02-11T21:30:22.966Z,49.57
2023-02-11T21:33:27.099Z,50.53
2023-02-11T21:36:29.764Z,43.40
2023-02-11T21:39:31.485Z,51.60
2023-02-11T21:42:33.265Z,52.33
2023-02-11T21:45:34.974Z,52.83
2023-02-11T21:48:37.100Z,52.07
2023-02-11T21:51:39.481Z,68.90
2023-02-11T21:54:41.189Z,69.73
2023-02-11T21:57:43.452Z,59.87
2023-02-11T22:00:45.209Z,75.77
2023-02-11T22:03:47.597Z,60.30
2023-02-11T22:06:49.440Z,59.27
2023-02-11T22:09:52.200Z,59.90
2023-02-11T22:12:53.895Z,70.33
2023-02-11T22:16:04.558Z,65.00
2023-02-11T22:19:07.573Z,57.00
2023-02-11T22:22:09.521Z,53.43
2023-02-11T22:25:11.242Z,49.67
2023-02-11T22:28:13.054Z,49.90
2023-02-11T22:31:22.314Z,49.77
2023-02-11T22:34:24.086Z,48.47
2023-02-11T22:37:25.831Z,49.63
2023-02-11T22:40:27.626Z,47.20
2023-02-11T22:43:29.370Z,48.47
2023-02-11T22:46:31.129Z,47.37
2023-02-11T22:49:33.326Z,47.10
2023-02-11T22:52:36.307Z,47.50
2023-02-11T22:55:39.738Z,48.00
2023-02-11T22:58:41.477Z,46.10
2023-02-11T23:01:44.261Z,48.40
2023-02-11T23:04:48.369Z,47.40
2023-02-11T23:07:51.338Z,48.30
2023-02-11T23:10:53.607Z,46.63
2023-02-11T23:13:55.958Z,46.30
2023-02-11T23:16:57.700Z,46.93
2023-02-11T23:19:59.517Z,47.30
2023-02-11T23:23:01.296Z,47.00
2023-02-11T23:26:03.844Z,44.37
2023-02-11T23:29:05.801Z,45.80
2023-02-11T23:32:07.610Z,49.77
2023-02-11T23:35:09.339Z,48.73
2023-02-11T23:38:11.099Z,47.47
2023-02-11T23:41:13.549Z,45.37
2023-02-11T23:44:15.286Z,47.37
2023-02-11T23:47:16.967Z,48.37
2023-02-11T23:50:18.903Z,48.77
2023-02-11T23:53:20.662Z,48.73
2023-02-11T23:56:26.874Z,52.03
2023-02-11T23:59:28.582Z,52.17
